Time;durP1;ratioP1;P1;durP2;ratioP2;P2;SDS_P1;SDS_P2;PMS_P1;PMS_P2;Temp;Humidity;BMP_temperature;BMP_pressure;BME280_temperature;BME280_humidity;BME280_pressure;Samples;Min_cycle;Max_cycle;Signal;HPM_P1;HPM_P2
2022/03/31 00:01:24;;;;;;;7.15;6.72;;;;;;;6.25;100.00;100093.06;5217308;28;20083;-83
2022/03/31 00:03:55;;;;;;;9.80;7.18;;;;;;;6.31;100.00;100100.13;5216336;28;20021;-84
2022/03/31 00:06:25;;;;;;;8.85;7.82;;;;;;;6.11;100.00;100057.72;5199261;28;20112;-84
2022/03/31 00:08:56;;;;;;;8.98;8.10;;;;;;;6.23;100.00;100087.13;5216329;28;20038;-80
2022/03/31 00:11:26;;;;;;;8.45;7.68;;;;;;;5.95;100.00;100059.38;5216508;28;20029;-84
2022/03/31 00:13:56;;;;;;;8.18;7.68;;;;;;;6.09;100.00;100079.41;5215997;28;20032;-84
2022/03/31 00:16:28;;;;;;;8.75;7.85;;;;;;;6.09;100.00;100066.00;5198450;28;20033;-84
2022/03/31 00:18:58;;;;;;;7.43;6.97;;;;;;;6.28;100.00;100081.84;5216543;28;20033;-84
2022/03/31 00:21:28;;;;;;;6.88;6.38;;;;;;;6.22;100.00;100072.09;5219919;28;20082;-84
2022/03/31 00:23:59;;;;;;;7.85;7.15;;;;;;;6.14;100.00;100067.97;5201902;28;20037;-84
2022/03/31 00:26:29;;;;;;;7.35;6.85;;;;;;;6.06;100.00;100052.31;5219659;28;20244;-85
2022/03/31 00:29:00;;;;;;;8.80;8.00;;;;;;;6.16;100.00;100065.03;5219264;28;20033;-85
2022/03/31 00:31:30;;;;;;;10.10;8.20;;;;;;;5.89;100.00;100033.56;5217615;28;20029;-85
2022/03/31 00:34:01;;;;;;;8.05;7.45;;;;;;;5.95;100.00;100021.06;5216432;28;20496;-84
2022/03/31 00:36:31;;;;;;;8.05;7.45;;;;;;;5.90;100.00;100010.25;5215898;28;20104;-84
2022/03/31 00:41:51;;;;;;;8.52;7.82;;;;;;;5.93;100.00;100031.22;5224406;28;20107;-84
2022/03/31 00:44:22;;;;;;;8.45;7.90;;;;;;;5.98;100.00;100045.50;5225377;28;20026;-84
2022/03/31 00:46:54;;;;;;;9.38;8.77;;;;;;;6.08;100.00;100064.41;5208308;28;20018;-83
2022/03/31 00:49:25;;;;;;;7.55;7.15;;;;;;;5.72;100.00;100009.44;5208229;28;20022;-83
2022/03/31 00:51:55;;;;;;;8.98;8.38;;;;;;;5.91;100.00;100039.50;5225907;28;20108;-83
2022/03/31 00:54:27;;;;;;;10.68;9.70;;;;;;;5.41;100.00;99954.59;5225755;28;20117;-84
2022/03/31 00:56:59;;;;;;;8.95;8.27;;;;;;;6.03;100.00;100055.50;5226328;28;20029;-83
2022/03/31 00:59:30;;;;;;;10.30;9.50;;;;;;;5.98;100.00;100050.88;5224934;28;20029;-84
2022/03/31 01:02:01;;;;;;;9.93;8.15;;;;;;;5.88;100.00;100036.47;5227960;28;20037;-84
2022/03/31 01:04:34;;;;;;;10.20;9.27;;;;;;;5.94;100.00;100049.72;5229765;28;20029;-84
2022/03/31 01:07:05;;;;;;;9.50;8.70;;;;;;;5.73;100.00;100012.94;5230175;28;20026;-84
2022/03/31 01:09:35;;;;;;;9.20;8.60;;;;;;;5.78;100.00;100029.88;5230846;28;20021;-83
2022/03/31 01:12:06;;;;;;;9.45;8.63;;;;;;;5.72;100.00;100017.50;5214192;28;20071;-84
2022/03/31 01:14:37;;;;;;;10.18;9.38;;;;;;;5.63;100.00;100005.56;5212819;28;20025;-84
2022/03/31 01:17:07;;;;;;;9.57;8.88;;;;;;;5.85;100.00;100031.59;5232744;28;20030;-84
2022/03/31 01:19:37;;;;;;;10.48;9.88;;;;;;;5.87;100.00;100034.84;5213926;28;20005;-84
2022/03/31 01:22:08;;;;;;;10.70;9.45;;;;;;;5.80;100.00;100028.81;5231317;28;20025;-84
2022/03/31 01:24:40;;;;;;;9.65;8.93;;;;;;;5.50;100.00;99968.38;5230410;28;20029;-84
2022/03/31 01:27:11;;;;;;;9.32;8.60;;;;;;;5.80;100.00;100018.09;5231012;28;20036;-85
2022/03/31 01:29:42;;;;;;;9.95;9.13;;;;;;;5.89;100.00;100030.88;5212461;28;20017;-83
2022/03/31 01:32:12;;;;;;;11.57;10.10;;;;;;;4.95;100.00;99883.47;5227187;28;20029;-83
2022/03/31 01:34:43;;;;;;;10.82;9.73;;;;;;;5.55;100.00;99999.78;5209532;28;20025;-83
2022/03/31 01:37:14;;;;;;;9.57;8.82;;;;;;;5.37;100.00;99980.25;5208015;28;20140;-83
2022/03/31 01:39:44;;;;;;;11.45;10.52;;;;;;;5.31;100.00;99975.03;5225423;28;20033;-84
2022/03/31 01:42:15;;;;;;;11.68;10.77;;;;;;;5.06;100.00;99946.00;5226806;28;20057;-83
2022/03/31 01:44:45;;;;;;;13.18;9.55;;;;;;;5.31;100.00;99975.84;5228316;28;20029;-83
2022/03/31 01:47:17;;;;;;;10.40;9.70;;;;;;;5.65;100.00;100032.91;5227463;28;20025;-83
2022/03/31 01:49:47;;;;;;;12.02;9.30;;;;;;;5.53;100.00;100001.91;5208643;28;20104;-84
2022/03/31 01:52:18;;;;;;;11.48;10.70;;;;;;;5.10;100.00;99931.09;5207850;28;20033;-84
2022/03/31 01:54:49;;;;;;;10.63;9.88;;;;;;;5.59;100.00;100007.09;5225413;28;20071;-79
2022/03/31 01:57:19;;;;;;;13.85;10.40;;;;;;;5.00;100.00;99923.69;5224645;28;20017;-83
2022/03/31 01:59:50;;;;;;;10.27;9.63;;;;;;;4.84;100.00;99903.09;5226184;28;20033;-84
2022/03/31 02:02:20;;;;;;;10.00;9.25;;;;;;;5.37;100.00;99993.63;5226274;28;20064;-85
2022/03/31 02:04:51;;;;;;;9.75;9.07;;;;;;;5.29;100.00;99987.84;5225332;28;20036;-81
2022/03/31 02:07:22;;;;;;;11.73;10.88;;;;;;;4.79;100.00;99913.69;5224627;28;20021;-84
2022/03/31 02:09:52;;;;;;;9.60;8.95;;;;;;;5.25;100.00;99992.88;5224099;28;20033;-84
2022/03/31 02:12:22;;;;;;;12.45;9.75;;;;;;;4.57;100.00;99896.72;5206952;28;20029;-84
2022/03/31 02:14:53;;;;;;;9.13;8.52;;;;;;;5.19;100.00;100004.56;5206483;28;20036;-85
2022/03/31 02:17:23;;;;;;;9.82;9.10;;;;;;;5.16;100.00;100002.38;5207091;28;20034;-84
2022/03/31 02:19:53;;;;;;;9.60;8.77;;;;;;;5.16;100.00;100005.06;5207596;28;20021;-85
2022/03/31 02:22:24;;;;;;;9.27;8.65;;;;;;;5.16;100.00;100012.28;5225314;28;20043;-84
2022/03/31 02:24:54;;;;;;;9.35;8.65;;;;;;;5.03;100.00;99992.78;5224458;28;20048;-83
2022/03/31 02:27:25;;;;;;;11.38;10.02;;;;;;;5.14;100.00;100012.50;5223784;28;20088;-84
2022/03/31 02:29:55;;;;;;;10.02;9.13;;;;;;;5.15;100.00;100007.97;5207012;28;20034;-84
2022/03/31 02:32:26;;;;;;;11.00;10.30;;;;;;;5.08;100.00;99994.72;5223489;28;20025;-85
2022/03/31 02:34:57;;;;;;;10.77;10.02;;;;;;;4.82;100.00;99955.22;5223798;28;20055;-85
2022/03/31 02:37:27;;;;;;;10.35;9.60;;;;;;;4.67;100.00;99932.47;5223864;28;20021;-84
2022/03/31 02:39:58;;;;;;;10.50;9.45;;;;;;;4.86;100.00;99951.00;5224063;28;20052;-85
2022/03/31 02:42:28;;;;;;;10.13;9.43;;;;;;;4.86;100.00;99942.97;5222789;28;20089;-85
2022/03/31 02:44:58;;;;;;;10.18;9.27;;;;;;;5.08;100.00;99990.19;5205035;28;20030;-84
2022/03/31 02:47:29;;;;;;;8.75;8.18;;;;;;;4.69;100.00;99934.91;5223877;28;20033;-85
2022/03/31 02:50:00;;;;;;;10.55;9.60;;;;;;;4.78;100.00;99959.41;5222883;28;20087;-84
2022/03/31 02:55:24;;;;;;;11.63;10.85;;;;;;;4.91;100.00;99985.88;5223129;28;20025;-85
2022/03/31 02:55:28;;;;;;;10.10;9.40;;;;;;;4.69;100.00;99957.13;5223750;28;20033;-85
2022/03/31 02:58:03;;;;;;;11.45;10.50;;;;;;;5.06;100.00;99997.66;5223608;28;20033;-84
2022/03/31 03:00:35;;;;;;;9.98;9.18;;;;;;;5.08;100.00;99984.03;5226639;22;20495;-58
2022/03/31 03:03:06;;;;;;;12.77;11.52;;;;;;;5.03;100.00;99976.72;5184090;28;20025;-58
2022/03/31 03:05:37;;;;;;;10.85;9.50;;;;;;;5.11;100.00;99999.59;5167645;28;20038;-55
2022/03/31 03:08:08;;;;;;;12.13;10.90;;;;;;;5.11;100.00;99988.09;5184964;28;20022;-57
2022/03/31 03:10:39;;;;;;;11.32;10.15;;;;;;;5.08;100.00;99992.88;5185084;28;20486;-58
2022/03/31 03:13:10;;;;;;;7.13;6.70;;;;;;;4.98;100.00;99992.69;5184938;28;20026;-59
2022/03/31 03:15:40;;;;;;;9.57;8.77;;;;;;;4.77;100.00;99971.16;5167326;28;20030;-57
2022/03/31 03:18:11;;;;;;;8.10;7.60;;;;;;;4.81;100.00;99991.03;5167462;28;20022;-57
2022/03/31 03:20:41;;;;;;;9.55;8.90;;;;;;;4.52;100.00;99987.53;5185010;28;20053;-57
2022/03/31 03:23:11;;;;;;;8.98;8.40;;;;;;;4.30;100.00;99990.84;5167039;28;20053;-57
2022/03/31 03:25:42;;;;;;;10.95;10.15;;;;;;;4.09;100.00;99994.13;5185065;28;20525;-57
2022/03/31 03:28:13;;;;;;;10.18;9.48;;;;;;;3.98;100.00;100013.69;5167034;28;20049;-60
2022/03/31 03:30:43;;;;;;;11.25;10.15;;;;;;;3.91;100.00;99992.41;5167248;28;20423;-57
2022/03/31 03:33:14;;;;;;;11.57;10.55;;;;;;;3.85;100.00;99998.69;5166881;28;20030;-57
2022/03/31 03:35:44;;;;;;;9.38;8.77;;;;;;;3.76;100.00;99996.59;5167299;28;20519;-55
2022/03/31 03:38:16;;;;;;;9.63;8.98;;;;;;;3.67;100.00;99996.16;5166845;28;20026;-55
2022/03/31 03:40:47;;;;;;;10.88;10.18;;;;;;;3.57;100.00;99998.56;5185885;28;20033;-56
2022/03/31 03:43:17;;;;;;;10.35;9.65;;;;;;;3.51;100.00;100013.63;5185693;28;20018;-55
2022/03/31 03:45:48;;;;;;;8.95;8.25;;;;;;;3.44;100.00;100012.97;5167669;28;20040;-57
2022/03/31 03:48:21;;;;;;;9.98;9.27;;;;;;;3.32;100.00;100012.13;5185150;28;20029;-57
2022/03/31 03:50:53;;;;;;;8.65;8.05;;;;;;;3.23;100.00;100010.81;5167273;28;20116;-57
2022/03/31 03:53:25;;;;;;;9.52;8.82;;;;;;;3.20;100.00;100009.41;5184428;28;20058;-57
2022/03/31 03:55:55;;;;;;;9.63;9.02;;;;;;;3.13;100.00;100006.06;5188031;28;20108;-56
2022/03/31 03:58:26;;;;;;;7.72;7.28;;;;;;;3.16;100.00;100015.47;5171268;28;20057;-56
2022/03/31 04:00:57;;;;;;;10.82;9.20;;;;;;;3.05;100.00;100017.03;5171138;28;20037;-62
2022/03/31 04:03:27;;;;;;;7.47;6.95;;;;;;;2.96;100.00;100016.53;5188639;28;20048;-58
2022/03/31 04:05:58;;;;;;;7.97;7.47;;;;;;;2.90;100.00;100012.09;5170838;28;20029;-58
2022/03/31 04:08:28;;;;;;;7.63;7.18;;;;;;;2.83;100.00;100015.91;5170942;28;20025;-56
2022/03/31 04:10:59;;;;;;;6.10;5.70;;;;;;;2.79;100.00;100020.06;5188219;28;20022;-56
2022/03/31 04:13:29;;;;;;;6.00;5.70;;;;;;;2.70;100.00;100023.03;5170229;28;20034;-58
2022/03/31 04:16:00;;;;;;;6.13;5.82;;;;;;;2.52;100.00;100019.59;5154312;28;20057;-58
2022/03/31 04:18:31;;;;;;;4.68;4.38;;;;;;;2.37;100.00;100006.66;5175874;28;20034;-61
2022/03/31 04:21:02;;;;;;;5.22;4.93;;;;;;;2.50;100.00;100025.16;5204637;28;20068;-64
2022/03/31 04:23:33;;;;;;;5.75;5.25;;;;;;;2.41;100.00;100010.50;5184777;28;20483;-57
2022/03/31 04:26:03;;;;;;;4.85;4.43;;;;;;;2.47;100.00;100020.25;5170489;28;20036;-57
2022/03/31 04:28:34;;;;;;;4.57;4.35;;;;;;;2.38;100.00;100022.41;5188178;28;20101;-58
2022/03/31 04:31:04;;;;;;;3.92;3.83;;;;;;;2.33;100.00;100029.44;5188322;28;20060;-57
2022/03/31 04:33:35;;;;;;;4.32;4.22;;;;;;;2.23;100.00;100024.66;5170577;28;20084;-58
2022/03/31 04:36:06;;;;;;;5.18;4.05;;;;;;;2.10;100.00;100013.31;5170347;28;20120;-56
2022/03/31 04:38:36;;;;;;;3.83;3.72;;;;;;;2.10;100.00;100031.94;5170237;28;20054;-58
2022/03/31 04:41:09;;;;;;;3.88;3.78;;;;;;;2.02;100.00;100025.88;5188209;28;20018;-56
2022/03/31 04:43:40;;;;;;;7.57;4.55;;;;;;;1.95;100.00;100030.47;5187670;28;20030;-57
2022/03/31 04:46:11;;;;;;;8.57;4.72;;;;;;;1.95;100.00;100032.31;5188030;28;20029;-58
2022/03/31 04:48:41;;;;;;;4.18;4.03;;;;;;;1.94;100.00;100034.16;5170070;28;20033;-59
2022/03/31 04:51:12;;;;;;;3.95;3.83;;;;;;;1.87;100.00;100044.06;5170148;28;20014;-59
2022/03/31 04:53:42;;;;;;;4.15;3.95;;;;;;;1.80;100.00;100047.81;5164678;28;20034;-61
2022/03/31 04:56:15;;;;;;;4.45;4.25;;;;;;;1.70;100.00;100043.00;5183095;28;20018;-60
2022/03/31 04:58:46;;;;;;;3.88;3.78;;;;;;;1.73;100.00;100045.22;5170013;28;20507;-60
2022/03/31 05:01:17;;;;;;;3.50;3.40;;;;;;;1.71;100.00;100047.28;5169132;28;20030;-59
2022/03/31 05:03:48;;;;;;;4.78;4.57;;;;;;;1.62;100.00;100043.25;5169097;28;20121;-59
2022/03/31 05:06:18;;;;;;;4.15;4.05;;;;;;;1.53;100.00;100053.34;5186500;28;20022;-57
2022/03/31 05:08:49;;;;;;;4.13;4.03;;;;;;;1.43;100.00;100045.06;5187912;28;20026;-60
2022/03/31 05:11:20;;;;;;;4.50;4.40;;;;;;;1.32;100.00;100037.75;5169898;28;20049;-59
2022/03/31 05:13:50;;;;;;;4.22;4.13;;;;;;;1.24;100.00;100048.66;5170085;28;20030;-60
2022/03/31 05:16:21;;;;;;;4.70;4.53;;;;;;;1.12;100.00;100048.53;5173714;28;20033;-61
2022/03/31 05:18:51;;;;;;;4.95;4.75;;;;;;;0.85;100.00;100017.84;5189656;28;20030;-60
2022/03/31 05:21:22;;;;;;;6.38;4.22;;;;;;;0.88;100.00;100030.66;5190055;28;20022;-59
2022/03/31 05:23:53;;;;;;;5.13;4.90;;;;;;;0.85;100.00;100036.44;5189303;28;20057;-59
2022/03/31 05:26:23;;;;;;;5.20;5.00;;;;;;;0.80;100.00;100033.59;5189415;28;20056;-61
2022/03/31 05:28:54;;;;;;;4.35;4.22;;;;;;;0.81;100.00;100035.22;5207854;28;20033;-59
2022/03/31 05:31:25;;;;;;;6.53;6.20;;;;;;;0.75;100.00;100028.91;5189746;28;20025;-61
2022/03/31 05:33:55;;;;;;;9.13;5.65;;;;;;;0.72;100.00;100036.50;5187144;28;20526;-59
2022/03/31 05:36:26;;;;;;;5.95;5.55;;;;;;;0.64;100.00;100035.69;5188273;28;20029;-60
2022/03/31 05:38:57;;;;;;;5.65;5.43;;;;;;;0.65;100.00;100047.97;5167510;28;20057;-60
2022/03/31 05:41:27;;;;;;;6.28;5.97;;;;;;;0.61;100.00;100043.28;5169552;28;20077;-59
2022/03/31 05:43:58;;;;;;;4.97;4.78;;;;;;;0.41;100.00;100010.66;5169626;28;20033;-61
2022/03/31 05:46:29;;;;;;;5.95;5.65;;;;;;;0.72;100.00;100049.78;5169236;28;20034;-61
2022/03/31 05:48:59;;;;;;;6.25;5.85;;;;;;;0.74;100.00;100047.72;5169748;28;20042;-58
2022/03/31 05:51:30;;;;;;;5.95;5.70;;;;;;;0.75;100.00;100046.69;5169361;28;20018;-58
2022/03/31 05:54:02;;;;;;;8.13;7.72;;;;;;;0.80;100.00;100041.56;5169055;28;20036;-58
2022/03/31 05:56:34;;;;;;;8.98;8.43;;;;;;;0.80;100.00;100047.69;5169226;28;20031;-59
2022/03/31 05:59:05;;;;;;;9.57;9.02;;;;;;;0.85;100.00;100061.19;5170320;28;20475;-58
2022/03/31 06:01:35;;;;;;;10.77;9.90;;;;;;;0.84;100.00;100043.59;5169468;28;20085;-57
2022/03/31 06:04:05;;;;;;;12.85;11.85;;;;;;;0.86;100.00;100036.22;5168944;28;20037;-59
2022/03/31 06:06:36;;;;;;;13.75;12.85;;;;;;;0.94;100.00;100049.25;5169463;28;20029;-59
2022/03/31 06:09:07;;;;;;;15.65;14.45;;;;;;;0.91;100.00;100046.19;5169808;28;20021;-59
2022/03/31 06:11:38;;;;;;;14.07;13.18;;;;;;;0.97;100.00;100056.78;5169515;28;20024;-58
2022/03/31 06:14:09;;;;;;;14.20;13.23;;;;;;;1.02;100.00;100058.81;5168799;28;20448;-57
2022/03/31 06:16:40;;;;;;;15.00;13.90;;;;;;;1.04;100.00;100055.94;5168819;28;20029;-57
2022/03/31 06:19:10;;;;;;;13.15;12.25;;;;;;;1.08;100.00;100054.50;5168722;28;20049;-57
2022/03/31 06:21:41;;;;;;;13.32;12.25;;;;;;;1.09;100.00;100048.97;5169061;28;20104;-58
2022/03/31 06:24:12;;;;;;;13.02;12.13;;;;;;;1.15;100.00;100050.78;5168387;28;20026;-59
2022/03/31 06:26:43;;;;;;;12.20;11.40;;;;;;;1.06;100.00;100030.78;5168612;28;20048;-58
2022/03/31 06:29:13;;;;;;;11.43;10.25;;;;;;;1.20;100.00;100047.44;5168667;28;20021;-56
2022/03/31 06:31:43;;;;;;;11.23;10.52;;;;;;;1.26;100.00;100057.22;5168402;28;20065;-57
2022/03/31 06:34:15;;;;;;;9.23;8.68;;;;;;;1.29;100.00;100062.94;5185832;28;20053;-59
2022/03/31 06:36:46;;;;;;;9.43;8.90;;;;;;;1.26;100.00;100055.41;5168401;28;20036;-58
2022/03/31 06:39:17;;;;;;;9.23;8.63;;;;;;;1.25;100.00;100056.41;5167997;28;20032;-58
2022/03/31 06:41:47;;;;;;;9.55;8.85;;;;;;;1.35;100.00;100066.59;5168255;28;20033;-56
2022/03/31 06:44:19;;;;;;;9.30;8.70;;;;;;;1.33;100.00;100064.16;5168326;28;20037;-56
2022/03/31 06:46:53;;;;;;;9.02;8.52;;;;;;;1.38;100.00;100066.16;5168669;28;20021;-57
2022/03/31 06:49:23;;;;;;;8.18;7.78;;;;;;;1.18;100.00;100037.03;5168558;28;20117;-57
2022/03/31 06:51:55;;;;;;;8.15;7.65;;;;;;;1.41;100.00;100070.25;5168780;28;20476;-58
2022/03/31 06:54:26;;;;;;;7.53;7.03;;;;;;;1.35;100.00;100075.38;5168064;28;20575;-58
2022/03/31 06:56:57;;;;;;;8.73;8.23;;;;;;;1.38;100.00;100081.31;5168270;28;20030;-58
2022/03/31 06:59:30;;;;;;;9.10;8.52;;;;;;;1.30;100.00;100061.09;5185959;28;20030;-57
2022/03/31 07:02:01;;;;;;;8.25;7.78;;;;;;;1.36;100.00;100073.53;5168144;28;20030;-56
2022/03/31 07:04:32;;;;;;;7.63;7.13;;;;;;;1.39;100.00;100081.09;5183806;28;20160;-58
2022/03/31 07:07:02;;;;;;;9.75;9.10;;;;;;;1.39;100.00;100073.13;5168136;28;20125;-59
2022/03/31 07:09:33;;;;;;;9.25;8.75;;;;;;;1.38;100.00;100076.81;5168099;28;20053;-58
2022/03/31 07:12:04;;;;;;;10.35;9.73;;;;;;;1.42;100.00;100080.69;5168358;28;20026;-58
2022/03/31 07:14:37;;;;;;;10.68;9.88;;;;;;;1.50;100.00;100076.91;5167882;28;20109;-58
2022/03/31 07:17:08;;;;;;;10.93;10.18;;;;;;;1.49;100.00;100059.31;5168608;28;20395;-57
2022/03/31 07:19:38;;;;;;;11.30;10.50;;;;;;;1.60;100.00;100059.44;5167840;28;20022;-57
2022/03/31 07:22:09;;;;;;;11.40;10.60;;;;;;;1.60;100.00;100063.94;5168020;28;20069;-60
2022/03/31 07:24:42;;;;;;;11.38;10.48;;;;;;;1.62;100.00;100067.22;5167762;28;20065;-57
2022/03/31 07:27:12;;;;;;;9.70;9.20;;;;;;;1.73;100.00;100071.84;5167873;28;20484;-57
2022/03/31 07:29:43;;;;;;;10.48;9.88;;;;;;;1.71;100.00;100052.59;5167452;28;20022;-58
2022/03/31 07:32:13;;;;;;;8.75;8.25;;;;;;;1.72;100.00;100053.44;5167993;28;20018;-57
2022/03/31 07:34:44;;;;;;;9.23;8.68;;;;;;;1.76;100.00;100058.06;5167510;28;20030;-57
2022/03/31 07:37:15;;;;;;;9.35;8.75;;;;;;;1.78;100.00;100050.69;5167706;28;20069;-57
2022/03/31 07:39:45;;;;;;;9.63;8.63;;;;;;;1.88;100.00;100051.00;5167404;28;20448;-54
2022/03/31 07:42:16;;;;;;;7.82;7.40;;;;;;;1.91;100.00;100055.91;5167564;28;20078;-54
2022/03/31 07:44:46;;;;;;;9.38;8.80;;;;;;;1.99;100.00;100057.47;5167753;28;20084;-54
2022/03/31 07:47:17;;;;;;;9.63;9.02;;;;;;;2.02;100.00;100057.81;5167804;28;20030;-55
2022/03/31 07:49:49;;;;;;;10.57;9.82;;;;;;;2.01;100.00;100048.25;5167628;28;20120;-57
2022/03/31 07:52:21;;;;;;;12.27;11.35;;;;;;;2.14;100.00;100054.44;5167566;28;20432;-54
2022/03/31 07:54:52;;;;;;;10.75;10.15;;;;;;;2.22;100.00;100060.31;5183761;28;20026;-55
2022/03/31 07:57:23;;;;;;;11.15;10.13;;;;;;;2.23;100.00;100058.47;5167586;28;20116;-54
2022/03/31 07:59:53;;;;;;;12.63;11.63;;;;;;;2.26;100.00;100053.50;5167693;28;20033;-58
2022/03/31 08:02:26;;;;;;;13.18;12.27;;;;;;;2.18;100.00;100060.97;5167551;28;20026;-55
2022/03/31 08:04:57;;;;;;;12.02;11.13;;;;;;;2.21;100.00;100057.88;5167085;28;20026;-58
2022/03/31 08:07:27;;;;;;;13.52;12.55;;;;;;;2.22;100.00;100064.81;5167328;28;20032;-57
2022/03/31 08:09:58;;;;;;;12.80;11.93;;;;;;;2.16;100.00;100063.03;5167479;28;20034;-57
2022/03/31 08:12:28;;;;;;;11.63;10.88;;;;;;;2.16;100.00;100058.53;5167644;28;20511;-56
2022/03/31 08:14:59;;;;;;;13.48;12.35;;;;;;;2.26;100.00;100068.69;5185034;28;20030;-58
2022/03/31 08:17:30;;;;;;;15.05;13.80;;;;;;;2.30;100.00;100081.34;5183939;28;20025;-57
2022/03/31 08:20:01;;;;;;;15.23;13.93;;;;;;;2.33;100.00;100080.88;5167278;28;20025;-56
2022/03/31 08:22:31;;;;;;;12.95;12.05;;;;;;;2.35;100.00;100080.66;5167172;28;20026;-58
2022/03/31 08:25:03;;;;;;;13.65;12.65;;;;;;;2.35;100.00;100078.81;5167370;28;20022;-58
2022/03/31 08:27:35;;;;;;;10.35;9.75;;;;;;;2.36;100.00;100069.78;5166963;28;20071;-57
2022/03/31 08:30:13;;;;;;;12.18;11.40;;;;;;;2.42;100.00;100080.59;5166977;28;20036;-58
2022/03/31 08:32:46;;;;;;;12.15;11.43;;;;;;;2.41;100.00;100082.44;5167087;28;20026;-58
2022/03/31 08:35:17;;;;;;;11.93;11.07;;;;;;;2.49;100.00;100084.00;5165843;28;20431;-58
2022/03/31 08:37:47;;;;;;;11.52;10.68;;;;;;;2.47;100.00;100089.56;5166877;28;20022;-58
2022/03/31 08:40:18;;;;;;;10.32;9.27;;;;;;;2.47;100.00;100086.88;5167347;28;20040;-58
2022/03/31 08:42:48;;;;;;;9.25;8.63;;;;;;;2.14;100.00;100035.81;5170503;28;20061;-58
2022/03/31 08:45:20;;;;;;;9.48;8.88;;;;;;;2.46;100.00;100087.91;5170152;28;20153;-55
2022/03/31 08:47:53;;;;;;;10.25;9.63;;;;;;;2.49;100.00;100087.47;5170789;28;20037;-58
2022/03/31 08:50:24;;;;;;;8.57;8.05;;;;;;;2.52;100.00;100089.72;5170182;28;20484;-55
2022/03/31 08:52:54;;;;;;;9.93;9.30;;;;;;;2.53;100.00;100085.19;5170620;28;20029;-57
2022/03/31 08:55:25;;;;;;;10.77;10.07;;;;;;;2.42;100.00;100070.75;5170748;28;20030;-55
2022/03/31 08:57:55;;;;;;;8.80;8.32;;;;;;;2.55;100.00;100088.44;5170784;28;20030;-57
2022/03/31 09:00:26;;;;;;;8.18;7.30;;;;;;;2.71;100.00;100093.16;5185349;23;20038;-58
2022/03/31 09:03:03;;;;;;;7.82;7.20;;;;;;;2.72;100.00;100100.13;5181114;28;20022;-56
2022/03/31 09:05:52;;;;;;;8.45;8.00;;;;;;;2.75;100.00;100093.53;5165763;28;20031;-57
2022/03/31 09:08:23;;;;;;;7.88;7.47;;;;;;;2.72;100.00;100081.47;5149362;28;20034;-57
2022/03/31 09:10:58;;;;;;;8.45;7.75;;;;;;;2.86;100.00;100096.28;5149411;28;20074;-57
2022/03/31 09:13:40;;;;;;;7.85;7.30;;;;;;;2.88;100.00;100088.06;5149108;28;20077;-58
2022/03/31 09:16:11;;;;;;;8.75;8.15;;;;;;;2.93;100.00;100097.00;5149743;28;20026;-57
2022/03/31 09:18:43;;;;;;;6.78;6.28;;;;;;;3.03;100.00;100091.13;5149592;28;20036;-59
2022/03/31 09:21:15;;;;;;;8.75;7.30;;;;;;;3.14;100.00;100093.03;5149497;28;20054;-56
2022/03/31 09:23:46;;;;;;;8.45;7.95;;;;;;;3.21;100.00;100085.75;5149571;28;20031;-58
2022/03/31 09:26:17;;;;;;;7.43;6.97;;;;;;;3.24;100.00;100081.81;5149542;28;20488;-58
2022/03/31 09:28:50;;;;;;;7.55;7.05;;;;;;;3.44;100.00;100093.03;5166726;28;20030;-59
2022/03/31 09:31:25;;;;;;;7.32;6.70;;;;;;;3.55;100.00;100086.06;5149027;28;20030;-59
2022/03/31 09:33:57;;;;;;;7.15;6.65;;;;;;;3.63;100.00;100089.22;5165250;28;20026;-61
2022/03/31 09:36:28;;;;;;;7.55;7.05;;;;;;;3.79;100.00;100090.41;5149448;28;20400;-60
2022/03/31 09:39:05;;;;;;;8.15;7.57;;;;;;;3.93;100.00;100086.50;5149043;28;20026;-59
2022/03/31 09:41:38;;;;;;;7.80;7.10;;;;;;;4.08;100.00;100084.16;5148874;28;20106;-59
2022/03/31 09:44:17;;;;;;;6.70;6.22;;;;;;;4.15;100.00;100083.22;5164921;28;20452;-60
2022/03/31 09:46:49;;;;;;;6.37;6.00;;;;;;;4.29;100.00;100079.28;5148951;28;20027;-60
2022/03/31 09:49:24;;;;;;;6.20;5.75;;;;;;;4.35;100.00;100084.50;5148882;28;20026;-59
2022/03/31 09:51:58;;;;;;;7.13;6.72;;;;;;;4.36;100.00;100085.31;5148566;28;20030;-59
2022/03/31 09:54:32;;;;;;;6.53;6.15;;;;;;;4.40;100.00;100081.94;5148543;28;20026;-60
2022/03/31 09:57:07;;;;;;;6.70;6.30;;;;;;;4.36;100.00;100074.63;5148982;28;20133;-60
2022/03/31 09:59:39;;;;;;;6.25;5.95;;;;;;;4.54;100.00;100082.50;5148677;28;20034;-60
2022/03/31 10:02:09;;;;;;;6.82;6.25;;;;;;;4.61;100.00;100045.75;5148992;28;20384;-63
2022/03/31 10:04:43;;;;;;;5.95;5.65;;;;;;;5.01;100.00;100074.34;5148269;28;20030;-60
2022/03/31 10:07:15;;;;;;;5.60;5.30;;;;;;;5.18;100.00;100075.22;5165322;28;20029;-59
2022/03/31 10:09:46;;;;;;;5.70;5.35;;;;;;;5.04;100.00;100037.22;5149371;28;20026;-60
2022/03/31 10:12:26;;;;;;;5.43;5.13;;;;;;;5.20;100.00;100065.06;5148911;28;20018;-60
2022/03/31 10:15:09;;;;;;;8.45;6.63;;;;;;;5.15;100.00;100064.97;5148924;28;20026;-60
2022/03/31 10:17:42;;;;;;;6.43;6.03;;;;;;;5.38;100.00;100067.53;5149333;28;20535;-59
2022/03/31 10:20:14;;;;;;;6.22;5.78;;;;;;;5.64;100.00;100070.66;5149220;28;20101;-61
2022/03/31 10:25:45;;;;;;;;;;;;;;;6.22;100.00;100058.69;5166968;28;20128;-61
2022/03/31 10:28:21;;;;;;;9.98;9.23;;;;;;;6.15;100.00;100066.09;5149025;28;20328;-61
2022/03/31 10:31:04;;;;;;;9.20;8.55;;;;;;;5.88;100.00;100064.06;5148933;28;20027;-59
2022/03/31 10:33:42;;;;;;;9.38;8.65;;;;;;;5.92;100.00;100054.53;5148638;28;20057;-60
2022/03/31 10:36:18;;;;;;;7.13;6.63;;;;;;;5.87;100.00;100061.63;5148659;28;20049;-61
2022/03/31 10:38:58;;;;;;;9.23;8.63;;;;;;;6.09;100.00;100062.53;5149077;28;20027;-59
2022/03/31 10:41:34;;;;;;;9.63;8.93;;;;;;;6.45;100.00;100055.78;5148058;28;20484;-61
2022/03/31 10:44:11;;;;;;;11.27;10.43;;;;;;;6.36;100.00;100059.94;5147614;28;20400;-61
2022/03/31 10:46:44;;;;;;;10.73;9.93;;;;;;;6.43;100.00;100055.22;5148142;28;20571;-60
2022/03/31 10:49:19;;;;;;;9.35;8.75;;;;;;;6.65;100.00;100060.59;5148360;28;20038;-59
2022/03/31 10:51:50;;;;;;;9.93;9.23;;;;;;;6.32;100.00;100042.75;5148343;28;20022;-60
2022/03/31 10:54:33;;;;;;;9.90;9.07;;;;;;;6.29;100.00;100052.09;5148483;28;20088;-61
2022/03/31 10:57:11;;;;;;;8.70;8.02;;;;;;;5.93;100.00;100045.41;5148731;28;20054;-60
2022/03/31 10:59:44;;;;;;;5.63;5.32;;;;;;;5.77;100.00;100060.41;5148351;28;20109;-60
2022/03/31 11:02:18;;;;;;;5.18;4.88;;;;;;;5.49;100.00;100054.31;5148282;28;20038;-65
2022/03/31 11:04:52;;;;;;;6.15;5.80;;;;;;;5.20;100.00;100049.00;5147407;28;20022;-61
2022/03/31 11:07:24;;;;;;;5.55;5.05;;;;;;;5.11;100.00;100049.66;5148506;28;20448;-61
2022/03/31 11:10:05;;;;;;;5.10;4.75;;;;;;;5.14;100.00;100051.84;5148250;28;20058;-61
2022/03/31 11:12:36;;;;;;;5.05;4.78;;;;;;;5.09;100.00;100057.91;5148365;28;20588;-60
2022/03/31 11:15:16;;;;;;;4.90;4.60;;;;;;;5.01;100.00;100050.25;5147937;28;20117;-62
2022/03/31 11:17:47;;;;;;;5.88;5.47;;;;;;;4.96;100.00;100058.19;5148625;28;20261;-63
2022/03/31 11:20:24;;;;;;;5.97;5.57;;;;;;;4.99;100.00;100050.50;5148442;28;20041;-61
2022/03/31 11:22:59;;;;;;;5.13;4.85;;;;;;;5.18;100.00;100056.47;5148103;28;20030;-61
2022/03/31 11:25:30;;;;;;;5.40;5.10;;;;;;;5.34;100.00;100034.28;5148646;28;20026;-61
2022/03/31 11:28:10;;;;;;;4.97;4.65;;;;;;;5.61;100.00;100036.31;5148506;28;20133;-60
2022/03/31 11:30:41;;;;;;;5.13;4.83;;;;;;;5.83;100.00;100039.88;5148570;28;20073;-62
2022/03/31 11:33:14;;;;;;;5.45;5.15;;;;;;;6.18;100.00;100033.44;5147603;28;20280;-64
2022/03/31 11:35:51;;;;;;;6.18;5.78;;;;;;;6.60;100.00;100036.41;5146736;28;20022;-63
2022/03/31 11:38:21;;;;;;;5.15;4.85;;;;;;;6.68;100.00;100027.91;5147824;28;20027;-60
2022/03/31 11:40:52;;;;;;;3.72;3.63;;;;;;;6.43;100.00;100028.41;5147864;28;20066;-62
2022/03/31 11:43:22;;;;;;;5.47;4.97;;;;;;;6.21;100.00;100031.06;5147025;28;20026;-62
2022/03/31 11:45:55;;;;;;;5.55;5.20;;;;;;;6.02;100.00;100027.88;5147435;28;20169;-60
2022/03/31 11:48:40;;;;;;;6.25;5.68;;;;;;;5.84;100.00;100038.00;5144988;28;20109;-62